Time;durP1;ratioP1;P1;durP2;ratioP2;P2;SDS_P1;SDS_P2;PMS_P1;PMS_P2;Temp;Humidity;BMP_temperature;BMP_pressure;BME280_temperature;BME280_humidity;BME280_pressure;Samples;Min_cycle;Max_cycle;Signal;HPM_P1;HPM_P2
2024/04/13 00:05:23;;;;;;;;;;;13.50;99.90;;;;;;6752014;88;20053;-83
2024/04/13 00:15:23;;;;;;;;;;;13.40;99.90;;;;;;6755415;88;20094;-83
2024/04/13 00:25:24;;;;;;;;;;;13.10;99.90;;;;;;6755195;88;20042;-83
2024/04/13 00:35:24;;;;;;;;;;;13.10;99.90;;;;;;6752857;88;20022;-84
2024/04/13 00:45:27;;;;;;;;;;;13.10;99.90;;;;;;6752034;88;20100;-83
2024/04/13 00:55:29;;;;;;;;;;;13.30;99.90;;;;;;6748340;88;20101;-85
2024/04/13 01:05:30;;;;;;;;;;;13.20;99.90;;;;;;6752051;88;20137;-83
2024/04/13 01:15:31;;;;;;;;;;;13.00;99.90;;;;;;6751665;88;20031;-82
2024/04/13 01:25:32;;;;;;;;;;;13.00;99.90;;;;;;6732228;88;20082;-83
2024/04/13 01:35:33;;;;;;;;;;;13.10;99.90;;;;;;6732269;88;20054;-83
2024/04/13 01:45:33;;;;;;;;;;;13.10;99.90;;;;;;6732097;88;20223;-82
2024/04/13 01:55:34;;;;;;;;;;;12.90;99.90;;;;;;6747562;88;21156;-82
2024/04/13 02:05:35;;;;;;;;;;;12.80;99.90;;;;;;6751259;88;20711;-83
2024/04/13 02:15:35;;;;;;;;;;;12.80;99.90;;;;;;6747301;88;20708;-83
2024/04/13 02:25:36;;;;;;;;;;;12.80;99.90;;;;;;6750979;88;20111;-83
2024/04/13 02:35:36;;;;;;;;;;;12.80;99.90;;;;;;6750102;88;20035;-83
2024/04/13 02:45:37;;;;;;;;;;;12.80;99.90;;;;;;6749983;88;20030;-82
2024/04/13 02:55:37;;;;;;;;;;;12.80;99.90;;;;;;6750306;88;20093;-83
2024/04/13 03:05:38;;;;;;;;;;;12.60;99.90;;;;;;6732699;77;20557;-79
2024/04/13 03:15:38;;;;;;;;;;;12.50;99.90;;;;;;6668266;88;20079;-79
2024/04/13 03:25:39;;;;;;;;;;;12.50;99.90;;;;;;6655503;88;20055;-79
2024/04/13 03:35:39;;;;;;;;;;;12.40;99.90;;;;;;6670941;88;20495;-78
2024/04/13 03:45:40;;;;;;;;;;;12.30;99.90;;;;;;6659969;88;20066;-78
2024/04/13 03:55:41;;;;;;;;;;;12.20;99.90;;;;;;6659077;88;20070;-78
2024/04/13 04:05:41;;;;;;;;;;;12.30;99.90;;;;;;6676406;88;20087;-78
2024/04/13 04:15:41;;;;;;;;;;;12.20;99.90;;;;;;6669698;88;20060;-78
2024/04/13 04:25:42;;;;;;;;;;;12.10;99.90;;;;;;6678402;88;20621;-79
2024/04/13 04:35:43;;;;;;;;;;;12.00;99.90;;;;;;6652902;88;20244;-79
2024/04/13 04:45:44;;;;;;;;;;;12.20;99.90;;;;;;6662317;88;20168;-79
2024/04/13 04:55:44;;;;;;;;;;;12.10;99.90;;;;;;6659599;88;20167;-79
2024/04/13 05:05:45;;;;;;;;;;;12.20;99.90;;;;;;6669737;88;20086;-79
2024/04/13 05:15:45;;;;;;;;;;;12.30;99.90;;;;;;6656984;88;20530;-79
2024/04/13 05:25:46;;;;;;;;;;;12.20;99.90;;;;;;6652578;88;20174;-80
2024/04/13 05:35:48;;;;;;;;;;;12.30;99.90;;;;;;6652555;88;20186;-79
2024/04/13 05:45:49;;;;;;;;;;;12.40;99.90;;;;;;6651294;88;20071;-80
2024/04/13 05:55:50;;;;;;;;;;;12.60;99.90;;;;;;6673020;88;20503;-79
2024/04/13 06:05:50;;;;;;;;;;;12.90;99.90;;;;;;6666328;88;20167;-79
2024/04/13 06:15:51;;;;;;;;;;;13.10;99.90;;;;;;6655520;88;20067;-79
2024/04/13 06:25:52;;;;;;;;;;;13.50;99.90;;;;;;6651667;88;20112;-78
2024/04/13 06:35:53;;;;;;;;;;;13.90;99.90;;;;;;6654548;88;20107;-78
2024/04/13 06:45:54;;;;;;;;;;;14.30;99.90;;;;;;6660693;88;20062;-80
2024/04/13 06:55:54;;;;;;;;;;;14.70;99.90;;;;;;6654534;88;20075;-79
2024/04/13 07:05:58;;;;;;;;;;;15.00;99.90;;;;;;6671433;88;20050;-77
2024/04/13 07:15:59;;;;;;;;;;;15.30;99.90;;;;;;6693150;88;20203;-78
2024/04/13 07:26:00;;;;;;;;;;;15.70;99.90;;;;;;6652854;88;20057;-79
2024/04/13 07:36:00;;;;;;;;;;;16.00;99.90;;;;;;6655771;88;20116;-79
2024/04/13 07:46:01;;;;;;;;;;;16.30;99.90;;;;;;6663447;88;20090;-78
2024/04/13 07:56:01;;;;;;;;;;;17.20;99.90;;;;;;6656063;88;20071;-79
2024/04/13 08:06:02;;;;;;;;;;;17.80;99.90;;;;;;6649613;88;20054;-78
2024/04/13 08:16:03;;;;;;;;;;;18.20;99.90;;;;;;6657521;88;20568;-79
2024/04/13 08:26:05;;;;;;;;;;;18.90;99.90;;;;;;6662010;88;20132;-79
2024/04/13 08:36:06;;;;;;;;;;;19.60;99.90;;;;;;6659893;88;20153;-78
2024/04/13 08:46:07;;;;;;;;;;;19.60;99.90;;;;;;6645625;88;20061;-77
2024/04/13 08:56:08;;;;;;;;;;;20.30;99.90;;;;;;6653369;88;20115;-77
2024/04/13 09:06:09;;;;;;;;;;;20.80;99.90;;;;;;6652914;88;20123;-76
2024/04/13 09:16:10;;;;;;;;;;;21.20;99.90;;;;;;6680000;88;20083;-79
2024/04/13 09:26:10;;;;;;;;;;;21.80;99.90;;;;;;6664079;88;20078;-83
2024/04/13 09:36:19;;;;;;;;;;;22.40;99.90;;;;;;6653889;88;20037;-83
2024/04/13 09:46:19;;;;;;;;;;;23.60;99.90;;;;;;6675254;88;20084;-83
2024/04/13 09:56:20;;;;;;;;;;;23.30;99.90;;;;;;6675194;89;20071;-83
2024/04/13 10:06:21;;;;;;;;;;;23.50;99.90;;;;;;6675344;88;20099;-84
2024/04/13 10:16:22;;;;;;;;;;;24.50;99.90;;;;;;6679217;88;20066;-78
2024/04/13 10:26:26;;;;;;;;;;;24.80;99.90;;;;;;6663972;88;20995;-77
2024/04/13 10:36:27;;;;;;;;;;;25.20;99.90;;;;;;6658950;88;20090;-78
2024/04/13 10:46:28;;;;;;;;;;;25.40;99.90;;;;;;6669121;88;20154;-77
2024/04/13 10:56:28;;;;;;;;;;;25.20;99.90;;;;;;6666680;88;20076;-79
2024/04/13 11:06:29;;;;;;;;;;;25.90;99.80;;;;;;6655924;88;20077;-79
2024/04/13 11:16:29;;;;;;;;;;;25.90;99.70;;;;;;6659111;88;20050;-80
2024/04/13 11:26:31;;;;;;;;;;;26.60;99.70;;;;;;6666728;88;20045;-78
2024/04/13 11:36:31;;;;;;;;;;;27.10;99.90;;;;;;6654663;88;20219;-77
2024/04/13 11:46:32;;;;;;;;;;;26.40;99.80;;;;;;6657852;88;20053;-79
2024/04/13 11:56:38;;;;;;;;;;;26.30;99.90;;;;;;6671982;88;20054;-79
2024/04/13 12:06:40;;;;;;;;;;;26.10;99.90;;;;;;6644062;88;20054;-77
2024/04/13 12:16:41;;;;;;;;;;;26.30;99.90;;;;;;6647408;88;20050;-80
2024/04/13 12:26:41;;;;;;;;;;;27.10;99.40;;;;;;6662854;88;20646;-78
2024/04/13 12:36:42;;;;;;;;;;;27.40;99.40;;;;;;6655788;88;20050;-79
2024/04/13 12:46:42;;;;;;;;;;;28.40;96.70;;;;;;6659576;88;20057;-78
2024/04/13 12:56:43;;;;;;;;;;;28.90;94.40;;;;;;6675779;88;20092;-79
2024/04/13 13:06:43;;;;;;;;;;;28.30;94.50;;;;;;6661657;88;20119;-80
2024/04/13 13:16:44;;;;;;;;;;;28.00;93.60;;;;;;6671014;88;21042;-79
2024/04/13 13:26:44;;;;;;;;;;;28.20;94.30;;;;;;6672324;88;20107;-78
2024/04/13 13:36:45;;;;;;;;;;;28.90;93.30;;;;;;6657758;88;20090;-79
2024/04/13 13:46:46;;;;;;;;;;;28.60;92.80;;;;;;6653758;88;20596;-81
2024/04/13 13:56:47;;;;;;;;;;;29.00;93.00;;;;;;6677770;88;20068;-82
2024/04/13 14:06:48;;;;;;;;;;;28.30;92.80;;;;;;6697458;88;20082;-79
2024/04/13 14:16:49;;;;;;;;;;;28.70;92.30;;;;;;6735711;88;20066;-80
2024/04/13 14:26:49;;;;;;;;;;;28.80;92.00;;;;;;6732022;88;20050;-82
2024/04/13 14:36:50;;;;;;;;;;;28.70;92.30;;;;;;6682597;88;20155;-78
2024/04/13 14:46:50;;;;;;;;;;;29.00;91.80;;;;;;6694945;88;20062;-79
2024/04/13 14:56:51;;;;;;;;;;;28.40;91.90;;;;;;6658346;88;20255;-80
2024/04/13 15:06:51;;;;;;;;;;;28.00;92.40;;;;;;6681164;88;20098;-80
2024/04/13 15:27:54;;;;;;;;;;;28.30;91.40;;;;;;6659694;88;20089;-81
2024/04/13 15:37:54;;;;;;;;;;;27.40;91.90;;;;;;6720132;88;20133;-81
2024/04/13 15:47:55;;;;;;;;;;;27.50;92.50;;;;;;6720509;88;20229;-81
2024/04/13 15:57:55;;;;;;;;;;;27.00;92.00;;;;;;6742369;88;20051;-79
2024/04/13 16:07:56;;;;;;;;;;;26.90;92.10;;;;;;6719402;88;20092;-79
2024/04/13 16:17:56;;;;;;;;;;;26.60;92.20;;;;;;6710464;88;20193;-78
2024/04/13 16:28:00;;;;;;;;;;;26.20;92.40;;;;;;6718697;88;20640;-80
2024/04/13 16:38:00;;;;;;;;;;;26.10;92.80;;;;;;6717527;88;20063;-79
2024/04/13 16:48:02;;;;;;;;;;;25.80;93.30;;;;;;6716133;88;20648;-79
2024/04/13 16:58:05;;;;;;;;;;;25.70;93.90;;;;;;6717862;88;20110;-79
2024/04/13 17:08:06;;;;;;;;;;;25.40;94.40;;;;;;6723119;88;20072;-79
2024/04/13 17:18:06;;;;;;;;;;;25.30;94.90;;;;;;6724382;88;20228;-79
2024/04/13 17:28:07;;;;;;;;;;;25.00;95.30;;;;;;6730897;88;20073;-78
2024/04/13 17:38:08;;;;;;;;;;;24.80;95.70;;;;;;6730350;88;20562;-79
2024/04/13 17:48:08;;;;;;;;;;;24.50;96.20;;;;;;6721350;88;20565;-80
2024/04/13 17:58:09;;;;;;;;;;;24.20;96.90;;;;;;6718492;88;20051;-80
2024/04/13 18:08:10;;;;;;;;;;;24.00;97.40;;;;;;6713973;88;20436;-80
2024/04/13 18:18:10;;;;;;;;;;;23.60;97.70;;;;;;6717842;88;20059;-81
2024/04/13 18:28:11;;;;;;;;;;;23.40;98.10;;;;;;6714156;88;20576;-80
2024/04/13 18:38:12;;;;;;;;;;;23.10;98.20;;;;;;6717605;88;20111;-80
2024/04/13 18:48:12;;;;;;;;;;;22.80;98.80;;;;;;6719158;88;20098;-79
2024/04/13 18:58:13;;;;;;;;;;;22.60;99.00;;;;;;6720150;88;20072;-79
2024/04/13 19:08:16;;;;;;;;;;;22.30;99.80;;;;;;6729253;88;20230;-79
2024/04/13 19:18:17;;;;;;;;;;;21.90;99.90;;;;;;6718407;88;20433;-80
2024/04/13 19:28:17;;;;;;;;;;;21.70;99.90;;;;;;6718156;88;20086;-80
2024/04/13 19:38:17;;;;;;;;;;;21.60;99.90;;;;;;6720450;88;20232;-80
2024/04/13 19:48:18;;;;;;;;;;;21.30;99.90;;;;;;6722432;88;20689;-80
2024/04/13 19:58:18;;;;;;;;;;;21.20;99.90;;;;;;6726310;88;20114;-79
2024/04/13 20:08:19;;;;;;;;;;;21.00;99.90;;;;;;6717048;88;20054;-81
2024/04/13 20:28:38;;;;;;;;;;;20.90;99.90;;;;;;6719083;88;20067;-81
2024/04/13 20:38:39;;;;;;;;;;;20.80;99.90;;;;;;6715442;88;20089;-81
2024/04/13 20:48:39;;;;;;;;;;;20.60;99.90;;;;;;6715846;88;20139;-81
2024/04/13 20:58:40;;;;;;;;;;;20.60;99.90;;;;;;6719431;88;20054;-80
2024/04/13 21:08:41;;;;;;;;;;;20.40;99.90;;;;;;6717122;88;20448;-81
2024/04/13 21:29:22;;;;;;;;;;;20.20;99.90;;;;;;6748439;88;20045;-80
2024/04/13 21:39:23;;;;;;;;;;;20.10;99.90;;;;;;6752676;87;20050;-80
2024/04/13 21:49:24;;;;;;;;;;;20.00;99.90;;;;;;6755567;87;20062;-81
2024/04/13 21:59:24;;;;;;;;;;;19.80;99.90;;;;;;6757078;87;20140;-79
2024/04/13 22:09:25;;;;;;;;;;;19.80;99.90;;;;;;6761925;87;20208;-80
2024/04/13 22:19:25;;;;;;;;;;;19.70;99.90;;;;;;6754225;87;20505;-80
2024/04/13 22:29:28;;;;;;;;;;;19.60;99.90;;;;;;6755363;87;20075;-81
2024/04/13 22:39:29;;;;;;;;;;;19.60;99.90;;;;;;6759588;87;20042;-81
2024/04/13 22:49:29;;;;;;;;;;;19.50;99.90;;;;;;6752428;87;20071;-79
2024/04/13 22:59:30;;;;;;;;;;;19.40;99.90;;;;;;6756960;87;20073;-79
2024/04/13 23:09:31;;;;;;;;;;;19.30;99.90;;;;;;6755122;87;20177;-80
2024/04/13 23:19:31;;;;;;;;;;;19.20;99.90;;;;;;6754787;87;20264;-80
2024/04/13 23:29:32;;;;;;;;;;;19.20;99.90;;;;;;6759289;87;20645;-80
2024/04/13 23:39:32;;;;;;;;;;;19.20;99.90;;;;;;6757896;87;20127;-80
2024/04/13 23:49:32;;;;;;;;;;;19.20;99.90;;;;;;6764989;87;20062;-79
2024/04/13 23:59:33;;;;;;;;;;;19.10;99.90;;;;;;6765616;87;20065;-77
